sensor_id;sensor_type;location;lat;lon;timestamp;P1;durP1;ratioP1;P2;durP2;ratioP2
6529;SDS011;3298;42.688;23.366;2023-01-29T00:01:26;5.33;;;4.93;;
6529;SDS011;3298;42.688;23.366;2023-01-29T00:03:55;7.30;;;5.70;;
6529;SDS011;3298;42.688;23.366;2023-01-29T00:06:22;7.50;;;6.20;;
6529;SDS011;3298;42.688;23.366;2023-01-29T00:08:49;11.07;;;7.03;;
6529;SDS011;3298;42.688;23.366;2023-01-29T00:11:16;7.03;;;5.70;;
6529;SDS011;3298;42.688;23.366;2023-01-29T00:13:44;6.87;;;5.47;;
6529;SDS011;3298;42.688;23.366;2023-01-29T00:16:11;7.27;;;6.57;;
6529;SDS011;3298;42.688;23.366;2023-01-29T00:18:38;7.60;;;6.10;;
6529;SDS011;3298;42.688;23.366;2023-01-29T00:21:08;6.80;;;6.20;;
6529;SDS011;3298;42.688;23.366;2023-01-29T00:23:36;6.90;;;5.47;;
6529;SDS011;3298;42.688;23.366;2023-01-29T00:26:02;5.90;;;5.40;;
6529;SDS011;3298;42.688;23.366;2023-01-29T00:28:30;4.63;;;4.20;;
6529;SDS011;3298;42.688;23.366;2023-01-29T00:30:57;6.50;;;5.17;;
6529;SDS011;3298;42.688;23.366;2023-01-29T00:33:23;8.77;;;7.17;;
6529;SDS011;3298;42.688;23.366;2023-01-29T00:35:50;7.17;;;6.47;;
6529;SDS011;3298;42.688;23.366;2023-01-29T00:38:18;7.30;;;6.03;;
6529;SDS011;3298;42.688;23.366;2023-01-29T00:40:45;6.60;;;6.00;;
6529;SDS011;3298;42.688;23.366;2023-01-29T00:43:29;5.83;;;5.33;;
6529;SDS011;3298;42.688;23.366;2023-01-29T00:46:13;6.13;;;5.47;;
6529;SDS011;3298;42.688;23.366;2023-01-29T00:48:40;7.43;;;6.00;;
6529;SDS011;3298;42.688;23.366;2023-01-29T00:51:06;5.27;;;4.77;;
6529;SDS011;3298;42.688;23.366;2023-01-29T00:53:35;7.37;;;6.67;;
6529;SDS011;3298;42.688;23.366;2023-01-29T00:56:01;7.30;;;6.70;;
6529;SDS011;3298;42.688;23.366;2023-01-29T00:58:28;6.27;;;5.50;;
6529;SDS011;3298;42.688;23.366;2023-01-29T01:00:58;6.03;;;5.50;;
6529;SDS011;3298;42.688;23.366;2023-01-29T01:03:27;9.57;;;6.97;;
6529;SDS011;3298;42.688;23.366;2023-01-29T01:06:02;7.10;;;6.40;;
6529;SDS011;3298;42.688;23.366;2023-01-29T01:08:30;6.77;;;6.03;;
6529;SDS011;3298;42.688;23.366;2023-01-29T01:11:16;6.77;;;6.17;;
6529;SDS011;3298;42.688;23.366;2023-01-29T01:13:43;6.50;;;5.90;;
6529;SDS011;3298;42.688;23.366;2023-01-29T01:16:10;6.67;;;6.00;;
6529;SDS011;3298;42.688;23.366;2023-01-29T01:18:37;5.97;;;5.10;;
6529;SDS011;3298;42.688;23.366;2023-01-29T01:21:05;7.60;;;6.37;;
6529;SDS011;3298;42.688;23.366;2023-01-29T01:23:31;6.70;;;5.67;;
6529;SDS011;3298;42.688;23.366;2023-01-29T01:25:58;7.10;;;6.00;;
6529;SDS011;3298;42.688;23.366;2023-01-29T01:28:27;6.20;;;5.60;;
6529;SDS011;3298;42.688;23.366;2023-01-29T01:30:54;7.10;;;5.93;;
6529;SDS011;3298;42.688;23.366;2023-01-29T01:33:21;6.67;;;6.03;;
6529;SDS011;3298;42.688;23.366;2023-01-29T01:35:48;7.47;;;6.07;;
6529;SDS011;3298;42.688;23.366;2023-01-29T01:38:15;6.33;;;5.73;;
6529;SDS011;3298;42.688;23.366;2023-01-29T01:40:43;6.20;;;4.40;;
6529;SDS011;3298;42.688;23.366;2023-01-29T01:43:11;5.53;;;5.00;;
6529;SDS011;3298;42.688;23.366;2023-01-29T01:45:39;6.23;;;5.70;;
6529;SDS011;3298;42.688;23.366;2023-01-29T01:48:08;7.67;;;6.30;;
6529;SDS011;3298;42.688;23.366;2023-01-29T01:50:42;7.00;;;6.30;;
6529;SDS011;3298;42.688;23.366;2023-01-29T01:53:12;6.23;;;5.63;;
6529;SDS011;3298;42.688;23.366;2023-01-29T01:55:43;7.87;;;6.23;;
6529;SDS011;3298;42.688;23.366;2023-01-29T01:58:14;3.10;;;2.60;;
6529;SDS011;3298;42.688;23.366;2023-01-29T02:00:47;5.37;;;4.90;;
6529;SDS011;3298;42.688;23.366;2023-01-29T02:03:14;6.30;;;5.73;;
6529;SDS011;3298;42.688;23.366;2023-01-29T02:06:00;6.33;;;5.73;;
6529;SDS011;3298;42.688;23.366;2023-01-29T02:08:47;8.30;;;6.17;;
6529;SDS011;3298;42.688;23.366;2023-01-29T02:11:36;7.23;;;6.53;;
6529;SDS011;3298;42.688;23.366;2023-01-29T02:14:03;8.17;;;6.17;;
6529;SDS011;3298;42.688;23.366;2023-01-29T02:16:33;6.47;;;4.83;;
6529;SDS011;3298;42.688;23.366;2023-01-29T02:19:00;7.23;;;6.53;;
6529;SDS011;3298;42.688;23.366;2023-01-29T02:21:35;4.73;;;4.33;;
6529;SDS011;3298;42.688;23.366;2023-01-29T02:24:21;5.47;;;4.97;;
6529;SDS011;3298;42.688;23.366;2023-01-29T02:27:18;5.70;;;5.20;;
6529;SDS011;3298;42.688;23.366;2023-01-29T02:29:51;6.37;;;5.73;;
6529;SDS011;3298;42.688;23.366;2023-01-29T02:32:26;8.07;;;6.43;;
6529;SDS011;3298;42.688;23.366;2023-01-29T02:35:05;8.07;;;7.27;;
6529;SDS011;3298;42.688;23.366;2023-01-29T02:37:53;7.33;;;6.70;;
6529;SDS011;3298;42.688;23.366;2023-01-29T02:40:25;6.53;;;5.83;;
6529;SDS011;3298;42.688;23.366;2023-01-29T02:42:59;7.80;;;6.40;;
6529;SDS011;3298;42.688;23.366;2023-01-29T02:45:34;7.57;;;6.20;;
6529;SDS011;3298;42.688;23.366;2023-01-29T02:48:09;7.37;;;6.60;;
6529;SDS011;3298;42.688;23.366;2023-01-29T02:50:40;7.43;;;6.27;;
6529;SDS011;3298;42.688;23.366;2023-01-29T02:53:11;6.40;;;5.90;;
6529;SDS011;3298;42.688;23.366;2023-01-29T02:55:41;6.60;;;6.03;;
6529;SDS011;3298;42.688;23.366;2023-01-29T02:58:15;6.87;;;6.20;;
6529;SDS011;3298;42.688;23.366;2023-01-29T03:00:47;6.47;;;5.83;;
6529;SDS011;3298;42.688;23.366;2023-01-29T03:03:16;7.53;;;6.77;;
6529;SDS011;3298;42.688;23.366;2023-01-29T03:05:48;6.60;;;5.97;;
6529;SDS011;3298;42.688;23.366;2023-01-29T03:08:24;8.60;;;7.27;;
6529;SDS011;3298;42.688;23.366;2023-01-29T03:11:07;8.33;;;6.37;;
6529;SDS011;3298;42.688;23.366;2023-01-29T03:13:40;9.07;;;7.30;;
6529;SDS011;3298;42.688;23.366;2023-01-29T03:16:16;6.37;;;5.80;;
6529;SDS011;3298;42.688;23.366;2023-01-29T03:18:49;6.87;;;6.23;;
6529;SDS011;3298;42.688;23.366;2023-01-29T03:21:22;5.97;;;5.37;;
6529;SDS011;3298;42.688;23.366;2023-01-29T03:24:12;6.90;;;6.23;;
6529;SDS011;3298;42.688;23.366;2023-01-29T03:27:01;7.10;;;6.40;;
6529;SDS011;3298;42.688;23.366;2023-01-29T03:29:48;6.73;;;6.03;;
6529;SDS011;3298;42.688;23.366;2023-01-29T03:32:37;7.63;;;6.73;;
6529;SDS011;3298;42.688;23.366;2023-01-29T03:35:05;9.10;;;7.10;;
6529;SDS011;3298;42.688;23.366;2023-01-29T03:37:36;6.67;;;6.07;;
6529;SDS011;3298;42.688;23.366;2023-01-29T03:40:08;6.97;;;6.37;;
6529;SDS011;3298;42.688;23.366;2023-01-29T03:42:40;6.33;;;5.73;;
6529;SDS011;3298;42.688;23.366;2023-01-29T03:45:15;7.60;;;5.77;;
6529;SDS011;3298;42.688;23.366;2023-01-29T03:47:47;5.30;;;4.90;;
6529;SDS011;3298;42.688;23.366;2023-01-29T03:50:23;55.10;;;21.50;;
6529;SDS011;3298;42.688;23.366;2023-01-29T03:53:00;73.80;;;43.23;;
6529;SDS011;3298;42.688;23.366;2023-01-29T03:55:35;24.57;;;18.83;;
6529;SDS011;3298;42.688;23.366;2023-01-29T03:58:08;8.67;;;7.97;;
6529;SDS011;3298;42.688;23.366;2023-01-29T04:00:48;8.67;;;7.50;;
6529;SDS011;3298;42.688;23.366;2023-01-29T04:03:20;8.90;;;8.03;;
6529;SDS011;3298;42.688;23.366;2023-01-29T04:05:52;8.43;;;6.37;;
6529;SDS011;3298;42.688;23.366;2023-01-29T04:08:30;6.37;;;5.77;;
6529;SDS011;3298;42.688;23.366;2023-01-29T04:11:01;7.00;;;6.43;;
6529;SDS011;3298;42.688;23.366;2023-01-29T04:13:32;6.67;;;6.07;;
6529;SDS011;3298;42.688;23.366;2023-01-29T04:15:59;5.23;;;4.73;;
6529;SDS011;3298;42.688;23.366;2023-01-29T04:18:31;20.40;;;14.43;;
6529;SDS011;3298;42.688;23.366;2023-01-29T04:20:57;70.10;;;31.93;;
6529;SDS011;3298;42.688;23.366;2023-01-29T04:23:26;14.70;;;9.47;;
6529;SDS011;3298;42.688;23.366;2023-01-29T04:25:57;7.97;;;7.20;;
6529;SDS011;3298;42.688;23.366;2023-01-29T04:28:40;7.37;;;6.53;;
6529;SDS011;3298;42.688;23.366;2023-01-29T04:31:17;5.83;;;5.43;;
6529;SDS011;3298;42.688;23.366;2023-01-29T04:33:54;5.00;;;4.60;;
6529;SDS011;3298;42.688;23.366;2023-01-29T04:36:33;5.73;;;5.23;;
6529;SDS011;3298;42.688;23.366;2023-01-29T04:39:08;5.10;;;4.70;;
6529;SDS011;3298;42.688;23.366;2023-01-29T04:41:45;5.07;;;4.67;;
6529;SDS011;3298;42.688;23.366;2023-01-29T04:44:19;4.87;;;4.40;;
6529;SDS011;3298;42.688;23.366;2023-01-29T04:46:51;5.30;;;4.90;;
6529;SDS011;3298;42.688;23.366;2023-01-29T04:49:26;4.67;;;4.27;;
6529;SDS011;3298;42.688;23.366;2023-01-29T04:52:00;4.40;;;4.00;;
6529;SDS011;3298;42.688;23.366;2023-01-29T04:54:37;5.00;;;4.60;;
6529;SDS011;3298;42.688;23.366;2023-01-29T04:57:14;7.83;;;7.13;;
6529;SDS011;3298;42.688;23.366;2023-01-29T04:59:47;5.93;;;5.43;;
6529;SDS011;3298;42.688;23.366;2023-01-29T05:02:18;6.23;;;5.83;;
6529;SDS011;3298;42.688;23.366;2023-01-29T05:04:49;5.67;;;5.10;;
6529;SDS011;3298;42.688;23.366;2023-01-29T05:07:18;5.40;;;4.50;;
6529;SDS011;3298;42.688;23.366;2023-01-29T05:09:46;4.73;;;4.33;;
6529;SDS011;3298;42.688;23.366;2023-01-29T05:12:14;8.13;;;6.83;;
6529;SDS011;3298;42.688;23.366;2023-01-29T05:14:43;5.03;;;4.53;;
6529;SDS011;3298;42.688;23.366;2023-01-29T05:17:13;5.33;;;4.83;;
6529;SDS011;3298;42.688;23.366;2023-01-29T05:19:43;4.77;;;4.37;;
6529;SDS011;3298;42.688;23.366;2023-01-29T05:22:12;4.27;;;3.97;;
6529;SDS011;3298;42.688;23.366;2023-01-29T05:24:42;4.37;;;4.07;;
6529;SDS011;3298;42.688;23.366;2023-01-29T05:27:11;5.30;;;4.80;;
6529;SDS011;3298;42.688;23.366;2023-01-29T05:29:59;5.67;;;5.17;;
6529;SDS011;3298;42.688;23.366;2023-01-29T05:32:26;5.80;;;5.13;;
6529;SDS011;3298;42.688;23.366;2023-01-29T05:34:53;3.70;;;3.50;;
6529;SDS011;3298;42.688;23.366;2023-01-29T05:37:21;5.73;;;5.17;;
6529;SDS011;3298;42.688;23.366;2023-01-29T05:39:48;5.90;;;5.47;;
6529;SDS011;3298;42.688;23.366;2023-01-29T05:42:15;5.93;;;5.43;;
6529;SDS011;3298;42.688;23.366;2023-01-29T05:44:41;5.03;;;4.63;;
6529;SDS011;3298;42.688;23.366;2023-01-29T05:47:08;4.20;;;3.90;;
6529;SDS011;3298;42.688;23.366;2023-01-29T05:49:35;5.20;;;4.80;;
6529;SDS011;3298;42.688;23.366;2023-01-29T05:52:02;5.37;;;4.87;;
6529;SDS011;3298;42.688;23.366;2023-01-29T05:54:30;5.10;;;4.67;;
6529;SDS011;3298;42.688;23.366;2023-01-29T05:56:57;4.37;;;3.97;;
6529;SDS011;3298;42.688;23.366;2023-01-29T05:59:23;5.30;;;4.90;;
6529;SDS011;3298;42.688;23.366;2023-01-29T06:01:50;5.23;;;4.83;;
6529;SDS011;3298;42.688;23.366;2023-01-29T06:04:17;6.33;;;5.73;;
6529;SDS011;3298;42.688;23.366;2023-01-29T06:06:44;5.77;;;5.27;;
6529;SDS011;3298;42.688;23.366;2023-01-29T06:09:11;5.17;;;4.67;;
6529;SDS011;3298;42.688;23.366;2023-01-29T06:11:39;5.43;;;5.00;;
6529;SDS011;3298;42.688;23.366;2023-01-29T06:14:06;7.47;;;5.87;;
6529;SDS011;3298;42.688;23.366;2023-01-29T06:16:33;5.80;;;5.30;;
6529;SDS011;3298;42.688;23.366;2023-01-29T06:18:59;5.00;;;4.60;;
6529;SDS011;3298;42.688;23.366;2023-01-29T06:21:26;5.30;;;4.80;;
6529;SDS011;3298;42.688;23.366;2023-01-29T06:23:53;5.37;;;4.97;;
6529;SDS011;3298;42.688;23.366;2023-01-29T06:26:20;7.57;;;6.80;;
6529;SDS011;3298;42.688;23.366;2023-01-29T06:28:48;5.97;;;5.47;;
6529;SDS011;3298;42.688;23.366;2023-01-29T06:31:16;5.57;;;4.77;;
6529;SDS011;3298;42.688;23.366;2023-01-29T06:33:43;6.33;;;5.77;;
6529;SDS011;3298;42.688;23.366;2023-01-29T06:36:10;5.63;;;5.20;;
6529;SDS011;3298;42.688;23.366;2023-01-29T06:38:36;6.33;;;5.83;;
6529;SDS011;3298;42.688;23.366;2023-01-29T06:41:07;6.93;;;6.23;;
6529;SDS011;3298;42.688;23.366;2023-01-29T06:43:35;6.43;;;5.93;;
6529;SDS011;3298;42.688;23.366;2023-01-29T06:46:05;7.00;;;6.30;;
6529;SDS011;3298;42.688;23.366;2023-01-29T06:48:32;7.50;;;6.80;;
6529;SDS011;3298;42.688;23.366;2023-01-29T06:51:00;8.03;;;6.97;;
6529;SDS011;3298;42.688;23.366;2023-01-29T06:53:27;8.53;;;7.07;;
6529;SDS011;3298;42.688;23.366;2023-01-29T06:55:54;6.30;;;5.70;;
6529;SDS011;3298;42.688;23.366;2023-01-29T06:58:21;8.17;;;6.37;;
6529;SDS011;3298;42.688;23.366;2023-01-29T07:00:48;9.93;;;8.37;;
6529;SDS011;3298;42.688;23.366;2023-01-29T07:03:16;10.80;;;9.17;;
6529;SDS011;3298;42.688;23.366;2023-01-29T07:05:44;11.23;;;7.33;;
6529;SDS011;3298;42.688;23.366;2023-01-29T07:08:15;8.33;;;7.53;;
6529;SDS011;3298;42.688;23.366;2023-01-29T07:10:42;9.47;;;8.07;;
6529;SDS011;3298;42.688;23.366;2023-01-29T07:13:09;10.30;;;9.50;;
6529;SDS011;3298;42.688;23.366;2023-01-29T07:15:36;7.63;;;6.93;;
6529;SDS011;3298;42.688;23.366;2023-01-29T07:18:03;8.27;;;7.43;;
6529;SDS011;3298;42.688;23.366;2023-01-29T07:20:37;8.20;;;6.90;;
6529;SDS011;3298;42.688;23.366;2023-01-29T07:23:05;9.83;;;8.87;;
6529;SDS011;3298;42.688;23.366;2023-01-29T07:25:32;7.60;;;6.90;;
6529;SDS011;3298;42.688;23.366;2023-01-29T07:27:59;13.03;;;6.77;;
6529;SDS011;3298;42.688;23.366;2023-01-29T07:30:27;7.40;;;6.80;;
6529;SDS011;3298;42.688;23.366;2023-01-29T07:32:54;8.43;;;6.53;;
6529;SDS011;3298;42.688;23.366;2023-01-29T07:35:20;8.20;;;6.60;;
6529;SDS011;3298;42.688;23.366;2023-01-29T07:37:49;6.90;;;6.20;;
6529;SDS011;3298;42.688;23.366;2023-01-29T07:40:16;7.20;;;6.60;;
6529;SDS011;3298;42.688;23.366;2023-01-29T07:42:43;8.10;;;7.30;;
6529;SDS011;3298;42.688;23.366;2023-01-29T07:45:10;7.73;;;7.03;;
6529;SDS011;3298;42.688;23.366;2023-01-29T07:47:37;8.30;;;7.37;;
6529;SDS011;3298;42.688;23.366;2023-01-29T07:50:05;9.07;;;7.67;;
6529;SDS011;3298;42.688;23.366;2023-01-29T07:52:32;8.73;;;7.90;;
6529;SDS011;3298;42.688;23.366;2023-01-29T07:55:01;9.67;;;8.50;;
6529;SDS011;3298;42.688;23.366;2023-01-29T07:57:27;10.57;;;9.20;;
6529;SDS011;3298;42.688;23.366;2023-01-29T07:59:55;9.53;;;8.53;;
6529;SDS011;3298;42.688;23.366;2023-01-29T08:02:22;10.67;;;9.57;;
6529;SDS011;3298;42.688;23.366;2023-01-29T08:04:48;10.83;;;8.07;;
6529;SDS011;3298;42.688;23.366;2023-01-29T08:07:15;10.60;;;8.90;;
6529;SDS011;3298;42.688;23.366;2023-01-29T08:09:42;13.10;;;9.50;;
6529;SDS011;3298;42.688;23.366;2023-01-29T08:12:10;6.77;;;5.97;;
6529;SDS011;3298;42.688;23.366;2023-01-29T08:14:37;11.13;;;7.90;;
6529;SDS011;3298;42.688;23.366;2023-01-29T08:17:04;9.00;;;7.67;;
6529;SDS011;3298;42.688;23.366;2023-01-29T08:19:30;15.63;;;8.43;;
6529;SDS011;3298;42.688;23.366;2023-01-29T08:21:57;10.57;;;7.37;;
6529;SDS011;3298;42.688;23.366;2023-01-29T08:24:24;9.60;;;6.93;;
6529;SDS011;3298;42.688;23.366;2023-01-29T08:26:51;7.97;;;7.17;;
6529;SDS011;3298;42.688;23.366;2023-01-29T08:29:19;10.10;;;7.70;;
6529;SDS011;3298;42.688;23.366;2023-01-29T08:31:46;6.10;;;5.60;;
6529;SDS011;3298;42.688;23.366;2023-01-29T08:34:13;12.77;;;8.47;;
6529;SDS011;3298;42.688;23.366;2023-01-29T08:36:39;10.73;;;7.67;;
6529;SDS011;3298;42.688;23.366;2023-01-29T08:39:06;7.60;;;6.63;;
6529;SDS011;3298;42.688;23.366;2023-01-29T08:41:33;7.07;;;6.37;;
6529;SDS011;3298;42.688;23.366;2023-01-29T08:44:00;10.23;;;8.33;;
6529;SDS011;3298;42.688;23.366;2023-01-29T08:46:29;7.33;;;6.60;;
6529;SDS011;3298;42.688;23.366;2023-01-29T08:48:56;8.20;;;7.40;;
6529;SDS011;3298;42.688;23.366;2023-01-29T08:51:23;10.23;;;7.93;;
6529;SDS011;3298;42.688;23.366;2023-01-29T08:53:50;9.93;;;8.53;;
6529;SDS011;3298;42.688;23.366;2023-01-29T08:56:17;10.67;;;6.43;;
6529;SDS011;3298;42.688;23.366;2023-01-29T08:58:44;8.27;;;7.47;;
6529;SDS011;3298;42.688;23.366;2023-01-29T09:01:11;9.20;;;7.13;;
6529;SDS011;3298;42.688;23.366;2023-01-29T09:03:40;8.73;;;7.83;;
6529;SDS011;3298;42.688;23.366;2023-01-29T09:06:08;10.57;;;7.93;;
6529;SDS011;3298;42.688;23.366;2023-01-29T09:08:36;12.03;;;8.80;;
6529;SDS011;3298;42.688;23.366;2023-01-29T09:11:03;8.57;;;7.77;;
6529;SDS011;3298;42.688;23.366;2023-01-29T09:13:31;10.87;;;8.67;;
6529;SDS011;3298;42.688;23.366;2023-01-29T09:15:58;12.67;;;8.53;;
6529;SDS011;3298;42.688;23.366;2023-01-29T09:18:26;9.50;;;7.57;;
6529;SDS011;3298;42.688;23.366;2023-01-29T09:20:54;8.77;;;7.80;;
6529;SDS011;3298;42.688;23.366;2023-01-29T09:23:21;10.47;;;7.30;;
6529;SDS011;3298;42.688;23.366;2023-01-29T09:25:48;8.37;;;7.40;;
6529;SDS011;3298;42.688;23.366;2023-01-29T09:28:15;10.53;;;7.57;;
6529;SDS011;3298;42.688;23.366;2023-01-29T09:30:42;9.23;;;7.43;;
6529;SDS011;3298;42.688;23.366;2023-01-29T09:33:09;12.73;;;9.47;;
6529;SDS011;3298;42.688;23.366;2023-01-29T09:35:38;13.23;;;8.47;;
6529;SDS011;3298;42.688;23.366;2023-01-29T09:38:07;10.17;;;8.60;;
6529;SDS011;3298;42.688;23.366;2023-01-29T09:40:37;14.60;;;8.60;;
6529;SDS011;3298;42.688;23.366;2023-01-29T09:43:14;12.47;;;9.00;;
6529;SDS011;3298;42.688;23.366;2023-01-29T09:45:48;11.15;;;9.90;;
6529;SDS011;3298;42.688;23.366;2023-01-29T09:48:18;11.90;;;8.20;;
6529;SDS011;3298;42.688;23.366;2023-01-29T09:50:48;11.30;;;9.77;;
6529;SDS011;3298;42.688;23.366;2023-01-29T09:53:23;9.93;;;8.87;;
6529;SDS011;3298;42.688;23.366;2023-01-29T09:55:58;9.40;;;8.50;;
6529;SDS011;3298;42.688;23.366;2023-01-29T09:58:30;11.60;;;10.40;;
6529;SDS011;3298;42.688;23.366;2023-01-29T10:01:01;11.33;;;9.17;;
6529;SDS011;3298;42.688;23.366;2023-01-29T10:03:48;13.53;;;10.13;;
6529;SDS011;3298;42.688;23.366;2023-01-29T10:09:43;12.77;;;11.20;;
6529;SDS011;3298;42.688;23.366;2023-01-29T10:12:32;11.83;;;9.03;;
6529;SDS011;3298;42.688;23.366;2023-01-29T10:15:12;18.17;;;13.07;;
6529;SDS011;3298;42.688;23.366;2023-01-29T10:17:51;11.93;;;8.70;;
6529;SDS011;3298;42.688;23.366;2023-01-29T10:20:36;11.63;;;7.47;;
6529;SDS011;3298;42.688;23.366;2023-01-29T10:23:17;13.47;;;9.93;;
6529;SDS011;3298;42.688;23.366;2023-01-29T10:25:50;10.87;;;9.20;;
6529;SDS011;3298;42.688;23.366;2023-01-29T10:28:19;10.27;;;8.00;;
6529;SDS011;3298;42.688;23.366;2023-01-29T10:30:53;9.63;;;8.07;;
6529;SDS011;3298;42.688;23.366;2023-01-29T10:33:24;12.07;;;9.50;;
6529;SDS011;3298;42.688;23.366;2023-01-29T10:35:57;14.23;;;10.37;;
6529;SDS011;3298;42.688;23.366;2023-01-29T10:38:30;9.07;;;8.07;;
6529;SDS011;3298;42.688;23.366;2023-01-29T10:41:13;10.80;;;9.70;;
6529;SDS011;3298;42.688;23.366;2023-01-29T10:43:51;12.40;;;10.40;;
6529;SDS011;3298;42.688;23.366;2023-01-29T10:46:28;12.67;;;9.30;;
6529;SDS011;3298;42.688;23.366;2023-01-29T10:49:07;12.43;;;8.83;;
6529;SDS011;3298;42.688;23.366;2023-01-29T10:51:48;10.07;;;9.07;;
6529;SDS011;3298;42.688;23.366;2023-01-29T10:54:32;12.10;;;9.70;;
6529;SDS011;3298;42.688;23.366;2023-01-29T10:57:13;11.27;;;10.03;;
6529;SDS011;3298;42.688;23.366;2023-01-29T10:59:51;14.17;;;10.37;;
6529;SDS011;3298;42.688;23.366;2023-01-29T11:02:28;12.93;;;10.03;;
6529;SDS011;3298;42.688;23.366;2023-01-29T11:04:55;10.83;;;9.07;;
6529;SDS011;3298;42.688;23.366;2023-01-29T11:07:22;12.27;;;9.97;;
6529;SDS011;3298;42.688;23.366;2023-01-29T11:09:50;15.63;;;11.30;;
6529;SDS011;3298;42.688;23.366;2023-01-29T11:12:23;11.60;;;9.43;;
6529;SDS011;3298;42.688;23.366;2023-01-29T11:14:55;15.20;;;10.27;;
6529;SDS011;3298;42.688;23.366;2023-01-29T11:17:27;10.03;;;9.03;;
6529;SDS011;3298;42.688;23.366;2023-01-29T11:19:54;11.73;;;9.77;;
6529;SDS011;3298;42.688;23.366;2023-01-29T11:22:22;14.47;;;9.77;;
6529;SDS011;3298;42.688;23.366;2023-01-29T11:27:42;13.10;;;9.37;;
6529;SDS011;3298;42.688;23.366;2023-01-29T11:30:14;12.70;;;10.00;;
6529;SDS011;3298;42.688;23.366;2023-01-29T11:32:48;12.60;;;9.07;;
6529;SDS011;3298;42.688;23.366;2023-01-29T11:35:21;13.90;;;9.37;;
6529;SDS011;3298;42.688;23.366;2023-01-29T11:37:50;12.90;;;9.83;;
6529;SDS011;3298;42.688;23.366;2023-01-29T11:40:36;13.77;;;9.67;;
6529;SDS011;3298;42.688;23.366;2023-01-29T11:43:15;10.87;;;8.83;;
6529;SDS011;3298;42.688;23.366;2023-01-29T11:45:45;10.43;;;9.20;;
6529;SDS011;3298;42.688;23.366;2023-01-29T11:48:14;10.57;;;8.80;;
6529;SDS011;3298;42.688;23.366;2023-01-29T11:50:43;10.67;;;9.23;;
6529;SDS011;3298;42.688;23.366;2023-01-29T11:53:21;14.63;;;9.17;;
6529;SDS011;3298;42.688;23.366;2023-01-29T11:55:52;18.27;;;11.87;;
6529;SDS011;3298;42.688;23.366;2023-01-29T11:58:23;14.77;;;11.27;;
6529;SDS011;3298;42.688;23.366;2023-01-29T12:00:53;12.87;;;9.90;;
6529;SDS011;3298;42.688;23.366;2023-01-29T12:03:23;11.70;;;9.63;;
6529;SDS011;3298;42.688;23.366;2023-01-29T12:06:00;10.23;;;6.87;;
6529;SDS011;3298;42.688;23.366;2023-01-29T12:08:32;14.30;;;11.10;;
6529;SDS011;3298;42.688;23.366;2023-01-29T12:11:09;14.20;;;10.37;;
6529;SDS011;3298;42.688;23.366;2023-01-29T12:13:39;11.23;;;9.13;;
6529;SDS011;3298;42.688;23.366;2023-01-29T12:16:13;12.33;;;9.53;;
6529;SDS011;3298;42.688;23.366;2023-01-29T12:18:45;14.53;;;9.67;;
6529;SDS011;3298;42.688;23.366;2023-01-29T12:21:17;14.30;;;10.33;;
6529;SDS011;3298;42.688;23.366;2023-01-29T12:23:51;14.50;;;10.10;;
6529;SDS011;3298;42.688;23.366;2023-01-29T12:26:26;12.53;;;9.43;;
6529;SDS011;3298;42.688;23.366;2023-01-29T12:29:07;13.10;;;10.37;;
6529;SDS011;3298;42.688;23.366;2023-01-29T12:31:48;10.73;;;9.20;;
6529;SDS011;3298;42.688;23.366;2023-01-29T12:34:22;12.40;;;9.00;;
6529;SDS011;3298;42.688;23.366;2023-01-29T12:36:59;12.13;;;8.63;;
6529;SDS011;3298;42.688;23.366;2023-01-29T12:39:34;13.60;;;9.30;;
6529;SDS011;3298;42.688;23.366;2023-01-29T12:42:02;10.20;;;9.10;;
6529;SDS011;3298;42.688;23.366;2023-01-29T12:44:35;11.00;;;9.00;;
6529;SDS011;3298;42.688;23.366;2023-01-29T12:47:10;11.17;;;9.33;;
6529;SDS011;3298;42.688;23.366;2023-01-29T12:49:40;13.67;;;10.40;;
6529;SDS011;3298;42.688;23.366;2023-01-29T12:52:09;15.68;;;11.55;;
6529;SDS011;3298;42.688;23.366;2023-01-29T12:54:39;16.10;;;11.60;;
6529;SDS011;3298;42.688;23.366;2023-01-29T12:57:13;12.90;;;9.83;;
6529;SDS011;3298;42.688;23.366;2023-01-29T12:59:48;13.63;;;9.47;;
6529;SDS011;3298;42.688;23.366;2023-01-29T13:02:26;15.50;;;10.17;;
6529;SDS011;3298;42.688;23.366;2023-01-29T13:04:58;16.60;;;12.30;;
6529;SDS011;3298;42.688;23.366;2023-01-29T13:07:29;11.77;;;10.33;;
6529;SDS011;3298;42.688;23.366;2023-01-29T13:10:02;11.87;;;10.60;;
6529;SDS011;3298;42.688;23.366;2023-01-29T13:12:35;14.10;;;10.67;;
6529;SDS011;3298;42.688;23.366;2023-01-29T13:15:09;14.13;;;8.07;;
6529;SDS011;3298;42.688;23.366;2023-01-29T13:17:47;8.37;;;7.57;;
6529;SDS011;3298;42.688;23.366;2023-01-29T13:20:19;9.97;;;8.33;;
6529;SDS011;3298;42.688;23.366;2023-01-29T13:22:49;9.60;;;8.60;;
6529;SDS011;3298;42.688;23.366;2023-01-29T13:25:19;11.00;;;8.63;;
6529;SDS011;3298;42.688;23.366;2023-01-29T13:27:46;9.43;;;7.87;;
6529;SDS011;3298;42.688;23.366;2023-01-29T13:30:28;10.87;;;9.57;;
6529;SDS011;3298;42.688;23.366;2023-01-29T13:32:57;11.87;;;9.97;;
6529;SDS011;3298;42.688;23.366;2023-01-29T13:35:34;12.10;;;8.33;;
6529;SDS011;3298;42.688;23.366;2023-01-29T13:38:02;9.30;;;8.40;;
6529;SDS011;3298;42.688;23.366;2023-01-29T13:40:31;9.87;;;8.83;;
6529;SDS011;3298;42.688;23.366;2023-01-29T13:42:59;11.63;;;9.37;;
6529;SDS011;3298;42.688;23.366;2023-01-29T13:45:29;13.90;;;8.80;;
6529;SDS011;3298;42.688;23.366;2023-01-29T13:48:07;14.70;;;10.37;;
6529;SDS011;3298;42.688;23.366;2023-01-29T13:50:36;10.40;;;9.27;;
6529;SDS011;3298;42.688;23.366;2023-01-29T13:53:05;10.80;;;9.53;;
6529;SDS011;3298;42.688;23.366;2023-01-29T13:55:34;11.63;;;9.20;;
6529;SDS011;3298;42.688;23.366;2023-01-29T13:58:03;12.53;;;9.27;;
6529;SDS011;3298;42.688;23.366;2023-01-29T14:06:09;9.57;;;7.40;;
6529;SDS011;3298;42.688;23.366;2023-01-29T14:08:37;9.43;;;7.87;;
6529;SDS011;3298;42.688;23.366;2023-01-29T14:11:27;8.17;;;7.37;;
6529;SDS011;3298;42.688;23.366;2023-01-29T14:14:00;9.50;;;8.00;;
6529;SDS011;3298;42.688;23.366;2023-01-29T14:16:37;12.20;;;8.43;;
6529;SDS011;3298;42.688;23.366;2023-01-29T14:19:04;11.33;;;8.90;;
6529;SDS011;3298;42.688;23.366;2023-01-29T14:21:32;11.60;;;9.57;;
6529;SDS011;3298;42.688;23.366;2023-01-29T14:24:07;15.33;;;9.70;;
6529;SDS011;3298;42.688;23.366;2023-01-29T14:26:40;14.33;;;9.87;;
6529;SDS011;3298;42.688;23.366;2023-01-29T14:29:16;14.83;;;10.37;;
6529;SDS011;3298;42.688;23.366;2023-01-29T14:31:47;13.03;;;9.83;;
6529;SDS011;3298;42.688;23.366;2023-01-29T14:34:19;14.90;;;10.60;;
6529;SDS011;3298;42.688;23.366;2023-01-29T14:36:52;18.77;;;11.27;;
6529;SDS011;3298;42.688;23.366;2023-01-29T14:39:27;19.00;;;13.33;;
6529;SDS011;3298;42.688;23.366;2023-01-29T14:42:00;19.10;;;11.53;;
6529;SDS011;3298;42.688;23.366;2023-01-29T14:44:45;26.23;;;13.03;;
6529;SDS011;3298;42.688;23.366;2023-01-29T14:47:19;22.83;;;13.53;;
6529;SDS011;3298;42.688;23.366;2023-01-29T14:49:47;18.03;;;11.83;;
6529;SDS011;3298;42.688;23.366;2023-01-29T14:52:19;20.30;;;14.20;;
6529;SDS011;3298;42.688;23.366;2023-01-29T14:54:48;16.83;;;11.70;;
6529;SDS011;3298;42.688;23.366;2023-01-29T14:57:17;14.37;;;10.00;;
6529;SDS011;3298;42.688;23.366;2023-01-29T14:59:47;17.47;;;12.50;;
6529;SDS011;3298;42.688;23.366;2023-01-29T15:02:21;15.37;;;10.17;;
6529;SDS011;3298;42.688;23.366;2023-01-29T15:04:57;16.13;;;12.17;;
6529;SDS011;3298;42.688;23.366;2023-01-29T15:07:27;15.33;;;11.07;;
6529;SDS011;3298;42.688;23.366;2023-01-29T15:10:02;11.77;;;9.17;;
6529;SDS011;3298;42.688;23.366;2023-01-29T15:12:32;17.47;;;11.73;;
6529;SDS011;3298;42.688;23.366;2023-01-29T15:15:12;15.33;;;11.30;;
6529;SDS011;3298;42.688;23.366;2023-01-29T15:17:47;16.60;;;11.47;;
6529;SDS011;3298;42.688;23.366;2023-01-29T15:20:30;18.73;;;12.20;;
6529;SDS011;3298;42.688;23.366;2023-01-29T15:22:58;21.33;;;12.60;;
6529;SDS011;3298;42.688;23.366;2023-01-29T15:25:28;23.20;;;15.93;;
6529;SDS011;3298;42.688;23.366;2023-01-29T15:27:59;17.93;;;12.23;;
6529;SDS011;3298;42.688;23.366;2023-01-29T15:30:31;21.27;;;15.07;;